createdAt,value
2019-02-14T00:00:55.613Z,103091.72
2019-02-14T00:03:25.780Z,103093.40
2019-02-14T00:05:56.647Z,103087.39
2019-02-14T00:08:28.049Z,103085.42
2019-02-14T00:10:59.445Z,103089.50
2019-02-14T00:13:30.060Z,103087.58
2019-02-14T00:16:02.225Z,103089.39
2019-02-14T00:18:32.733Z,103090.76
2019-02-14T00:21:03.339Z,103099.19
2019-02-14T00:23:35.225Z,103089.11
2019-02-14T00:26:05.518Z,103089.53
2019-02-14T00:28:35.680Z,103087.31
2019-02-14T00:31:07.863Z,103089.20
2019-02-14T00:33:39.055Z,103083.09
2019-02-14T00:36:10.069Z,103080.04
2019-02-14T00:38:40.630Z,103073.77
2019-02-14T00:41:11.493Z,103081.25
2019-02-14T00:43:42.492Z,103086.51
2019-02-14T00:46:15.296Z,103088.66
2019-02-14T00:48:45.496Z,103081.14
2019-02-14T00:51:16.804Z,103082.22
2019-02-14T00:53:46.996Z,103087.50
2019-02-14T00:56:17.537Z,103086.80
2019-02-14T00:58:47.741Z,103095.23
2019-02-14T01:01:18.907Z,103092.61
2019-02-14T01:03:50.750Z,103094.70
2019-02-14T01:06:21.852Z,103092.24
2019-02-14T01:08:53.467Z,103090.91
2019-02-14T01:11:24.510Z,103090.66
2019-02-14T01:13:55.134Z,103089.20
2019-02-14T01:16:26.707Z,103092.23
2019-02-14T01:18:58.909Z,103088.59
2019-02-14T01:21:30.332Z,103085.08
2019-02-14T01:24:01.720Z,103082.17
2019-02-14T01:26:32.546Z,103084.50
2019-02-14T01:29:05.468Z,103088.13
2019-02-14T01:31:36.115Z,103093.05
2019-02-14T01:34:08.011Z,103085.80
2019-02-14T01:36:38.207Z,103086.33
2019-02-14T01:39:08.438Z,103077.11
2019-02-14T01:41:39.904Z,103078.61
2019-02-14T01:44:10.506Z,103076.69
2019-02-14T01:46:42.164Z,103064.81
2019-02-14T01:49:14.677Z,103085.66
2019-02-14T01:51:45.797Z,103084.15
2019-02-14T01:54:18.689Z,103085.83
2019-02-14T01:56:48.976Z,103082.76
2019-02-14T01:59:19.542Z,103085.51
2019-02-14T02:01:50.271Z,103084.54
2019-02-14T02:04:21.234Z,103091.84
2019-02-14T02:06:52.928Z,103082.67
2019-02-14T02:09:23.497Z,103087.59
2019-02-14T02:11:54.213Z,103081.25
2019-02-14T02:14:24.384Z,103077.33
2019-02-14T02:16:54.574Z,103069.72
2019-02-14T02:19:25.574Z,103073.81
2019-02-14T02:21:57.750Z,103071.12
2019-02-14T02:24:31.530Z,103074.41
2019-02-14T02:27:02.893Z,103078.49
2019-02-14T02:29:34.220Z,103077.56
2019-02-14T02:32:04.946Z,103075.20
2019-02-14T02:34:36.650Z,103071.89
2019-02-14T02:37:07.284Z,103074.95
2019-02-14T02:39:37.464Z,103069.09
2019-02-14T02:42:07.981Z,103077.95
2019-02-14T02:44:38.723Z,103076.80
2019-02-14T02:47:10.568Z,103076.98
2019-02-14T02:49:41.512Z,103071.47
2019-02-14T02:52:14.310Z,103069.75
2019-02-14T02:54:45.371Z,103069.34
2019-02-14T02:57:17.954Z,103073.16
2019-02-14T02:59:49.128Z,103074.39
2019-02-14T03:02:19.300Z,103066.97
2019-02-14T03:04:49.540Z,103064.70
2019-02-14T03:07:20.586Z,103066.70
2019-02-14T03:09:50.774Z,103066.80
2019-02-14T03:12:23.301Z,103069.16
2019-02-14T03:14:54.390Z,103068.32
2019-02-14T03:17:24.545Z,103066.24
2019-02-14T03:19:55.723Z,103069.38
2019-02-14T03:22:25.898Z,103070.72
2019-02-14T03:24:58.531Z,103067.46
2019-02-14T03:27:30.717Z,103069.75
2019-02-14T03:30:01.431Z,103069.20
2019-02-14T03:32:32.246Z,103072.95
2019-02-14T03:35:02.553Z,103060.27
2019-02-14T03:37:33.303Z,103070.06
2019-02-14T03:40:05.831Z,103072.67
2019-02-14T03:42:41.795Z,103081.28
2019-02-14T03:45:17.539Z,103079.99
2019-02-14T03:47:48.953Z,103078.89
2019-02-14T03:50:19.521Z,103076.88
2019-02-14T03:52:53.256Z,103078.98
2019-02-14T03:55:25.774Z,103080.00
2019-02-14T03:57:55.981Z,103077.20
2019-02-14T04:00:28.998Z,103081.02
2019-02-14T04:02:59.783Z,103075.64
2019-02-14T04:05:32.349Z,103073.56
2019-02-14T04:08:07.703Z,103077.98
2019-02-14T04:10:37.983Z,103080.22
2019-02-14T04:13:09.052Z,103085.72
2019-02-14T04:15:40.803Z,103084.88
2019-02-14T04:18:11.064Z,103085.78
2019-02-14T04:20:41.749Z,103092.91
2019-02-14T04:23:12.346Z,103095.73
2019-02-14T04:25:43.988Z,103093.35
2019-02-14T04:28:14.686Z,103092.41
2019-02-14T04:30:47.194Z,103099.34
2019-02-14T04:33:19.113Z,103103.92
2019-02-14T04:35:53.979Z,103104.53
2019-02-14T04:38:24.971Z,103100.30
2019-02-14T04:40:55.698Z,103104.57
2019-02-14T04:43:26.432Z,103113.23
2019-02-14T04:45:57.137Z,103109.11
2019-02-14T04:48:27.304Z,103117.98
2019-02-14T04:50:58.426Z,103127.38
2019-02-14T04:53:28.613Z,103114.14
2019-02-14T04:55:58.837Z,103121.56
2019-02-14T04:58:29.059Z,103116.48
2019-02-14T05:01:01.093Z,103120.41
2019-02-14T05:03:31.656Z,103118.08
2019-02-14T05:06:03.049Z,103118.81
2019-02-14T05:08:33.229Z,103118.22
2019-02-14T05:11:03.453Z,103119.14
2019-02-14T05:13:34.044Z,103117.13
2019-02-14T05:16:04.643Z,103112.05
2019-02-14T05:18:35.190Z,103113.14
2019-02-14T05:21:06.745Z,103108.46
2019-02-14T05:23:37.412Z,103116.73
2019-02-14T05:26:10.409Z,103110.48
2019-02-14T05:28:42.869Z,103111.09
2019-02-14T05:31:13.879Z,103117.94
2019-02-14T05:33:45.385Z,103112.78
2019-02-14T05:36:27.082Z,103106.11
2019-02-14T05:38:58.513Z,103108.91
2019-02-14T05:41:28.679Z,103105.81
2019-02-14T05:43:59.951Z,103115.04
2019-02-14T05:46:31.385Z,103114.39
2019-02-14T05:49:02.223Z,103117.63
2019-02-14T05:51:32.425Z,103116.30
2019-02-14T05:54:02.670Z,103106.09
2019-02-14T05:56:36.800Z,103119.35
2019-02-14T05:59:08.764Z,103118.96
2019-02-14T06:01:41.312Z,103113.73
2019-02-14T06:04:13.702Z,103117.89
2019-02-14T06:06:46.673Z,103122.47
2019-02-14T06:09:20.003Z,103126.65
2019-02-14T06:11:53.633Z,103130.72
2019-02-14T06:14:24.228Z,103135.41
2019-02-14T06:16:55.657Z,103136.84
2019-02-14T06:19:29.322Z,103143.77
2019-02-14T06:22:00.267Z,103143.42
2019-02-14T06:24:31.896Z,103135.28
2019-02-14T06:27:04.329Z,103142.13
2019-02-14T06:29:37.562Z,103143.59
2019-02-14T06:32:08.098Z,103148.86
2019-02-14T06:34:38.721Z,103145.92
2019-02-14T06:37:09.962Z,103158.30
2019-02-14T06:39:41.458Z,103158.72
2019-02-14T06:42:12.021Z,103154.27
2019-02-14T06:44:42.745Z,103162.77
2019-02-14T06:47:13.330Z,103159.97
2019-02-14T06:49:43.498Z,103163.88
2019-02-14T06:52:15.882Z,103166.50
2019-02-14T06:54:48.319Z,103175.32
2019-02-14T06:57:19.186Z,103167.12
2019-02-14T06:59:50.708Z,103174.48
2019-02-14T07:02:21.321Z,103176.38
2019-02-14T07:04:52.849Z,103183.84
2019-02-14T07:07:25.936Z,103187.05
2019-02-14T07:09:59.601Z,103181.56
2019-02-14T07:12:31.076Z,103183.05
2019-02-14T07:15:03.385Z,103181.22
2019-02-14T07:17:39.420Z,103180.23
2019-02-14T07:20:13.647Z,103176.55
2019-02-14T07:22:45.384Z,103177.11
2019-02-14T07:25:23.650Z,103174.41
2019-02-14T07:27:58.005Z,103173.90
2019-02-14T07:30:31.680Z,103169.05
2019-02-14T07:33:04.861Z,103180.11
2019-02-14T07:35:36.709Z,103179.33
2019-02-14T07:38:08.573Z,103175.94
2019-02-14T07:40:39.682Z,103192.71
2019-02-14T07:43:10.635Z,103195.38
2019-02-14T07:45:42.706Z,103190.23
2019-02-14T07:48:13.950Z,103194.38
2019-02-14T07:50:45.411Z,103196.31
2019-02-14T07:53:17.088Z,103203.03
2019-02-14T07:55:51.222Z,103204.46
2019-02-14T07:58:21.408Z,103216.07
2019-02-14T08:00:53.365Z,103212.54
2019-02-14T08:03:23.552Z,103212.25
2019-02-14T08:05:55.345Z,103219.63
2019-02-14T08:08:27.478Z,103211.52
2019-02-14T08:10:58.824Z,103202.66
2019-02-14T08:13:29.968Z,103202.67
2019-02-14T08:16:00.503Z,103201.55
2019-02-14T08:18:32.237Z,103206.70
2019-02-14T08:21:02.940Z,103194.54
2019-02-14T08:23:36.010Z,103199.27
2019-02-14T08:26:10.835Z,103195.94
2019-02-14T08:28:40.979Z,103199.32
2019-02-14T08:31:13.693Z,103198.41
2019-02-14T08:33:47.834Z,103193.24
2019-02-14T08:36:22.502Z,103190.02
2019-02-14T08:38:54.979Z,103188.23
2019-02-14T08:41:37.563Z,103195.52
2019-02-14T08:44:08.396Z,103200.92
2019-02-14T08:47:03.504Z,103198.56
2019-02-14T08:49:36.928Z,103191.34
2019-02-14T08:52:09.562Z,103191.22
2019-02-14T08:54:42.812Z,103188.11
2019-02-14T08:57:13.886Z,103187.95
2019-02-14T08:59:45.004Z,103187.64
2019-02-14T09:02:16.305Z,103181.53
2019-02-14T09:04:47.326Z,103183.13
2019-02-14T09:07:19.623Z,103186.99
2019-02-14T09:09:50.631Z,103189.40
2019-02-14T09:12:21.995Z,103194.14
2019-02-14T09:14:53.306Z,103192.07
2019-02-14T09:17:24.695Z,103191.08
2019-02-14T09:19:56.470Z,103189.70
2019-02-14T09:22:27.806Z,103189.55
2019-02-14T09:25:01.332Z,103180.52
2019-02-14T09:27:40.411Z,103185.72
2019-02-14T09:30:25.511Z,103178.70
2019-02-14T09:32:57.009Z,103191.98
2019-02-14T09:35:29.231Z,103189.59
2019-02-14T09:38:03.437Z,103193.48
2019-02-14T09:40:32.750Z,103194.48
2019-02-14T09:43:03.776Z,103195.19
2019-02-14T09:45:39.358Z,103194.44
2019-02-14T09:48:10.737Z,103194.82
2019-02-14T09:50:42.905Z,103190.89
2019-02-14T09:53:14.118Z,103198.31
2019-02-14T09:55:45.750Z,103192.98
2019-02-14T09:58:20.306Z,103189.48
2019-02-14T10:00:51.869Z,103194.64
2019-02-14T10:03:23.778Z,103186.35
2019-02-14T10:05:56.401Z,103191.14
2019-02-14T10:08:29.909Z,103186.11
2019-02-14T10:11:01.055Z,103189.28
2019-02-14T10:13:33.004Z,103178.30
2019-02-14T10:16:04.399Z,103182.89
2019-02-14T10:18:38.156Z,103172.33
2019-02-14T10:21:09.305Z,103174.08
2019-02-14T10:23:40.746Z,103175.30
2019-02-14T10:26:12.018Z,103182.11
2019-02-14T10:28:43.204Z,103174.72
2019-02-14T10:31:15.295Z,103182.72
2019-02-14T10:33:47.789Z,103179.55
2019-02-14T10:36:49.106Z,103179.08
2019-02-14T10:39:22.632Z,103178.01
2019-02-14T10:41:54.903Z,103181.84
2019-02-14T10:44:27.050Z,103179.06
2019-02-14T10:47:02.041Z,103171.97
2019-02-14T10:49:32.673Z,103166.59
2019-02-14T10:52:03.427Z,103164.22
2019-02-14T10:54:34.823Z,103168.89
2019-02-14T10:57:06.668Z,103179.58
2019-02-14T10:59:41.283Z,103177.42
2019-02-14T11:02:15.515Z,103166.41
2019-02-14T11:04:48.813Z,103170.50
2019-02-14T11:07:21.859Z,103169.52
2019-02-14T11:09:52.030Z,103168.34
2019-02-14T11:12:26.933Z,103167.95
2019-02-14T11:14:59.871Z,103170.81
2019-02-14T11:17:30.468Z,103177.55
2019-02-14T11:20:03.048Z,103163.83
2019-02-14T11:22:34.260Z,103158.84
2019-02-14T11:25:06.263Z,103165.86
2019-02-14T11:27:42.973Z,103156.22
2019-02-14T11:30:17.891Z,103155.22
2019-02-14T11:32:48.739Z,103147.20
2019-02-14T11:35:22.549Z,103147.21
2019-02-14T11:37:55.780Z,103146.09
2019-02-14T11:40:34.104Z,103143.14
2019-02-14T11:43:07.508Z,103143.18
2019-02-14T11:45:39.963Z,103130.61
2019-02-14T11:48:11.448Z,103127.14
2019-02-14T11:50:42.290Z,103125.94
2019-02-14T11:53:14.132Z,103126.59
2019-02-14T11:55:45.662Z,103126.59
2019-02-14T11:58:18.940Z,103128.27
2019-02-14T12:00:49.451Z,103121.02
2019-02-14T12:03:21.906Z,103122.94
2019-02-14T12:06:02.152Z,103114.81
2019-02-14T12:08:35.345Z,103115.95
2019-02-14T12:11:09.954Z,103109.44
2019-02-14T12:13:41.090Z,103113.81
2019-02-14T12:16:12.562Z,103109.08
2019-02-14T12:18:44.298Z,103106.55
2019-02-14T12:21:18.408Z,103100.53
2019-02-14T12:23:50.957Z,103103.73
2019-02-14T12:26:23.028Z,103094.97
2019-02-14T12:28:54.454Z,103086.48
2019-02-14T12:31:26.064Z,103092.45
2019-02-14T12:34:00.458Z,103087.15
2019-02-14T12:36:32.011Z,103070.52
2019-02-14T12:39:09.140Z,103070.52
2019-02-14T12:41:40.440Z,103075.98
2019-02-14T12:44:14.854Z,103070.57
2019-02-14T12:46:48.140Z,103070.57
2019-02-14T12:49:18.836Z,103054.87
2019-02-14T12:51:53.909Z,103054.87
2019-02-14T12:54:24.540Z,103048.62
2019-02-14T12:56:55.072Z,103045.49
2019-02-14T12:59:25.688Z,103035.91
2019-02-14T13:02:01.588Z,103037.94
2019-02-14T13:04:33.117Z,103029.05
2019-02-14T13:07:04.214Z,103035.16
2019-02-14T13:09:34.391Z,103031.75
2019-02-14T13:12:06.603Z,103032.23
2019-02-14T13:14:38.613Z,103029.72
2019-02-14T13:17:20.599Z,103032.90
2019-02-14T13:19:56.900Z,103031.24
2019-02-14T13:22:28.357Z,103032.29
2019-02-14T13:24:58.878Z,103019.45
2019-02-14T13:27:35.705Z,103019.45
2019-02-14T13:30:09.420Z,103020.23
2019-02-14T13:32:41.345Z,103024.58
2019-02-14T13:35:23.536Z,103022.81
2019-02-14T13:37:54.642Z,103013.02
2019-02-14T13:40:29.390Z,103014.22
2019-02-14T13:43:00.912Z,103013.58
2019-02-14T13:45:34.345Z,103010.48
2019-02-14T13:48:07.686Z,103014.80
2019-02-14T13:50:38.209Z,103011.38
2019-02-14T13:53:09.682Z,102996.54
2019-02-14T13:55:47.369Z,102991.45
2019-02-14T13:58:23.608Z,102988.19
2019-02-14T14:00:54.617Z,102990.70
2019-02-14T14:03:30.686Z,102987.41
2019-02-14T14:06:04.095Z,102986.36
2019-02-14T14:08:35.234Z,102983.80
2019-02-14T14:11:05.388Z,102985.23
2019-02-14T14:13:37.034Z,102979.91
2019-02-14T14:16:07.645Z,102980.81
2019-02-14T14:18:38.514Z,102975.91
2019-02-14T14:21:10.863Z,102967.94
2019-02-14T14:23:44.715Z,102973.89
2019-02-14T14:26:17.999Z,102967.93
2019-02-14T14:28:48.903Z,102966.81
2019-02-14T14:31:21.055Z,102959.73
2019-02-14T14:33:52.808Z,102956.97
2019-02-14T14:36:25.884Z,102954.85
2019-02-14T14:38:56.567Z,102949.86
2019-02-14T14:41:26.762Z,102951.09
2019-02-14T14:44:26.770Z,102951.55
2019-02-14T14:47:04.818Z,102951.25
2019-02-14T14:49:37.316Z,102947.97
2019-02-14T14:52:08.223Z,102949.77
2019-02-14T14:54:40.177Z,102946.73
2019-02-14T14:57:10.761Z,102950.06
2019-02-14T14:59:43.850Z,102954.53
2019-02-14T15:02:14.399Z,102958.82
2019-02-14T15:04:46.058Z,102945.70
2019-02-14T15:07:17.967Z,102935.77
2019-02-14T15:09:57.333Z,102933.84
2019-02-14T15:12:20.770Z,102932.91
2019-02-14T15:14:53.483Z,102928.55
2019-02-14T15:17:26.085Z,102928.80
2019-02-14T15:20:00.506Z,102926.91
2019-02-14T15:22:30.636Z,102927.33
2019-02-14T15:25:01.824Z,102920.05
2019-02-14T15:27:32.871Z,102922.47
2019-02-14T15:30:03.205Z,102915.97
2019-02-14T15:32:35.984Z,102914.73
2019-02-14T15:35:09.281Z,102911.07
2019-02-14T15:37:44.541Z,102902.67
2019-02-14T15:40:15.613Z,102902.59
2019-02-14T15:42:46.174Z,102908.27
2019-02-14T15:45:22.461Z,102904.44
2019-02-14T15:47:53.090Z,102896.31
2019-02-14T15:50:27.887Z,102894.54
2019-02-14T15:53:00.577Z,102886.75
2019-02-14T15:55:31.433Z,102890.86
2019-02-14T15:58:07.324Z,102881.73
2019-02-14T16:00:41.217Z,102888.84
2019-02-14T16:03:17.855Z,102886.50
2019-02-14T16:05:51.301Z,102890.97
2019-02-14T16:08:23.921Z,102898.09
2019-02-14T16:10:55.883Z,102900.06
2019-02-14T16:13:26.153Z,102898.48
2019-02-14T16:15:58.764Z,102894.41
2019-02-14T16:18:29.493Z,102896.36
2019-02-14T16:21:03.542Z,102894.19
2019-02-14T16:23:34.464Z,102897.30
2019-02-14T16:26:06.045Z,102888.08
2019-02-14T16:28:41.085Z,102890.39
2019-02-14T16:31:16.278Z,102895.38
2019-02-14T16:33:47.322Z,102892.18
2019-02-14T16:36:20.622Z,102898.19
2019-02-14T16:38:52.301Z,102895.50
2019-02-14T16:41:24.074Z,102895.25
2019-02-14T16:43:54.789Z,102904.67
2019-02-14T16:46:27.139Z,102906.14
2019-02-14T16:48:57.331Z,102903.99
2019-02-14T16:51:27.487Z,102903.80
2019-02-14T16:53:59.404Z,102902.72
2019-02-14T16:56:30.499Z,102905.75
2019-02-14T16:59:00.895Z,102902.70
2019-02-14T17:01:33.206Z,102908.44
2019-02-14T17:04:04.856Z,102909.89
2019-02-14T17:06:36.652Z,102911.67
2019-02-14T17:09:10.412Z,102905.89
2019-02-14T17:11:42.824Z,102910.39
2019-02-14T17:14:13.399Z,102907.48
2019-02-14T17:16:44.341Z,102913.52
2019-02-14T17:19:19.221Z,102907.67
2019-02-14T17:21:49.398Z,102910.56
2019-02-14T17:24:21.801Z,102913.90
2019-02-14T17:26:54.803Z,102908.27
2019-02-14T17:29:26.299Z,102912.92
2019-02-14T17:31:57.504Z,102915.00
2019-02-14T17:34:27.732Z,102917.38
2019-02-14T17:37:12.917Z,102915.28
2019-02-14T17:39:50.705Z,102912.97
2019-02-14T17:42:22.442Z,102913.69
2019-02-14T17:44:55.976Z,102917.23
2019-02-14T17:47:28.478Z,102911.37
2019-02-14T17:50:02.604Z,102918.97
2019-02-14T17:52:33.236Z,102920.72
2019-02-14T17:55:06.503Z,102926.55
2019-02-14T17:57:39.791Z,102925.52
2019-02-14T18:00:11.766Z,102930.44
2019-02-14T18:02:44.531Z,102928.19
2019-02-14T18:05:16.394Z,102927.94
2019-02-14T18:07:46.570Z,102928.19
2019-02-14T18:10:19.643Z,102923.30
2019-02-14T18:12:51.369Z,102924.27
2019-02-14T18:15:21.946Z,102926.59
2019-02-14T18:17:54.192Z,102921.25
2019-02-14T18:20:25.657Z,102925.19
2019-02-14T18:22:57.578Z,102927.83
2019-02-14T18:25:28.149Z,102923.91
2019-02-14T18:28:01.144Z,102917.78
2019-02-14T18:30:32.102Z,102921.71
2019-02-14T18:33:03.119Z,102927.05
2019-02-14T18:35:34.064Z,102923.06
2019-02-14T18:38:06.732Z,102919.93
2019-02-14T18:40:40.853Z,102919.89
2019-02-14T18:43:17.245Z,102915.88
2019-02-14T18:45:48.575Z,102914.94
2019-02-14T18:48:19.176Z,102927.41
2019-02-14T18:50:50.424Z,102922.05
2019-02-14T18:53:21.275Z,102927.52
2019-02-14T18:55:52.859Z,102921.30
2019-02-14T18:58:26.852Z,102924.95
2019-02-14T19:01:02.722Z,102925.39
2019-02-14T19:03:36.145Z,102921.88
2019-02-14T19:06:07.683Z,102918.30
2019-02-14T19:08:43.565Z,102925.44
2019-02-14T19:11:21.001Z,102922.36
2019-02-14T19:13:57.782Z,102926.81
2019-02-14T19:16:29.523Z,102930.36
2019-02-14T19:18:59.703Z,102928.55
2019-02-14T19:21:29.988Z,102929.05
2019-02-14T19:24:01.060Z,102928.48
2019-02-14T19:26:33.048Z,102931.17
2019-02-14T19:29:07.977Z,102927.17
2019-02-14T19:31:39.020Z,102924.96
2019-02-14T19:34:10.455Z,102925.72
2019-02-14T19:36:40.983Z,102924.36
2019-02-14T19:39:12.101Z,102918.25
2019-02-14T19:41:47.781Z,102921.83
2019-02-14T19:44:19.529Z,102912.11
2019-02-14T19:46:50.196Z,102918.63
2019-02-14T19:49:20.384Z,102910.34
2019-02-14T19:51:53.229Z,102913.00
2019-02-14T19:54:28.623Z,102920.46
2019-02-14T19:57:01.224Z,102917.87
2019-02-14T19:59:34.236Z,102917.36
2019-02-14T20:02:07.868Z,102913.34
2019-02-14T20:04:43.644Z,102905.91
2019-02-14T20:07:15.059Z,102913.34
2019-02-14T20:09:47.405Z,102915.09
2019-02-14T20:12:17.812Z,102914.72
2019-02-14T20:14:50.795Z,102913.30
2019-02-14T20:17:28.975Z,102910.20
2019-02-14T20:20:01.247Z,102911.19
2019-02-14T20:22:31.847Z,102910.22
2019-02-14T20:25:03.307Z,102904.84
2019-02-14T20:27:36.381Z,102908.80
2019-02-14T20:30:09.858Z,102913.31
2019-02-14T20:32:40.033Z,102904.06
2019-02-14T20:35:11.052Z,102903.63
2019-02-14T20:37:41.689Z,102901.41
2019-02-14T20:40:15.967Z,102899.14
2019-02-14T20:42:48.440Z,102904.54
2019-02-14T20:45:22.757Z,102900.98
2019-02-14T20:47:57.062Z,102900.91
2019-02-14T20:50:26.583Z,102897.09
2019-02-14T20:52:56.744Z,102900.42
2019-02-14T20:55:30.867Z,102894.23
2019-02-14T20:58:06.799Z,102894.05
2019-02-14T21:00:40.510Z,102895.73
2019-02-14T21:03:17.353Z,102893.53
2019-02-14T21:05:51.624Z,102893.81
2019-02-14T21:08:25.889Z,102895.32
2019-02-14T21:10:58.822Z,102902.15
2019-02-14T21:13:29.928Z,102906.12
2019-02-14T21:16:03.525Z,102898.34
2019-02-14T21:18:36.038Z,102894.08
2019-02-14T21:21:08.280Z,102901.19
2019-02-14T21:23:41.391Z,102893.55
2019-02-14T21:26:13.912Z,102897.62
2019-02-14T21:28:44.655Z,102891.31
2019-02-14T21:31:16.823Z,102899.38
2019-02-14T21:33:48.322Z,102896.88
2019-02-14T21:36:20.323Z,102902.41
2019-02-14T21:38:53.038Z,102892.62
2019-02-14T21:41:24.424Z,102900.50
2019-02-14T21:43:56.915Z,102893.50
2019-02-14T21:46:28.401Z,102894.37
2019-02-14T21:48:59.546Z,102892.21
2019-02-14T21:51:30.128Z,102893.94
2019-02-14T21:54:04.705Z,102892.34
2019-02-14T21:56:36.772Z,102888.77
2019-02-14T21:59:06.940Z,102900.70
2019-02-14T22:01:42.501Z,102897.03
2019-02-14T22:04:14.492Z,102894.09
2019-02-14T22:06:46.980Z,102896.10
2019-02-14T22:09:18.193Z,102900.69
2019-02-14T22:11:49.387Z,102897.84
2019-02-14T22:14:20.620Z,102891.14
2019-02-14T22:16:52.569Z,102895.14
2019-02-14T22:19:23.056Z,102888.43
2019-02-14T22:21:55.899Z,102891.33
2019-02-14T22:24:26.459Z,102890.27
2019-02-14T22:26:56.706Z,102888.86
2019-02-14T22:29:27.627Z,102889.38
2019-02-14T22:31:59.614Z,102885.45
2019-02-14T22:34:31.421Z,102894.66
2019-02-14T22:37:01.998Z,102895.98
2019-02-14T22:39:32.214Z,102894.34
2019-02-14T22:42:57.352Z,102887.64
2019-02-14T22:45:30.716Z,102889.81
2019-02-14T22:48:01.405Z,102889.02
2019-02-14T22:50:31.587Z,102894.10
2019-02-14T22:53:02.631Z,102899.28
2019-02-14T22:55:33.116Z,102901.75
2019-02-14T22:58:05.785Z,102894.54
2019-02-14T23:00:55.018Z,102899.30
2019-02-14T23:03:28.541Z,102904.56
2019-02-14T23:05:59.678Z,102903.95
2019-02-14T23:08:36.580Z,102905.86
2019-02-14T23:11:10.475Z,102903.83
2019-02-14T23:13:48.833Z,102903.47
2019-02-14T23:16:21.293Z,102912.08
2019-02-14T23:19:08.274Z,102909.28
2019-02-14T23:21:39.826Z,102906.91
2019-02-14T23:24:12.166Z,102906.31
2019-02-14T23:26:52.532Z,102901.05
2019-02-14T23:29:24.127Z,102906.33
2019-02-14T23:31:55.522Z,102900.29
2019-02-14T23:34:31.496Z,102901.59
2019-02-14T23:37:03.012Z,102902.24
2019-02-14T23:39:34.034Z,102907.19
2019-02-14T23:42:06.068Z,102901.67
2019-02-14T23:44:38.451Z,102904.20
2019-02-14T23:47:11.116Z,102903.94
2019-02-14T23:49:42.302Z,102907.58
2019-02-14T23:52:13.489Z,102911.34
2019-02-14T23:54:44.282Z,102905.47
2019-02-14T23:57:14.830Z,102906.39
2019-02-14T23:59:45.709Z,102904.73
